createdAt,value
2022-08-05T00:01:36.160Z,77.32
2022-08-05T00:04:15.308Z,76.65
2022-08-05T00:06:43.043Z,76.83
2022-08-05T00:09:13.188Z,77.06
2022-08-05T00:11:49.404Z,77.38
2022-08-05T00:14:22.375Z,77.43
2022-08-05T00:16:54.561Z,77.51
2022-08-05T00:19:22.661Z,77.41
2022-08-05T00:21:50.152Z,77.61
2022-08-05T00:24:24.106Z,77.40
2022-08-05T00:26:52.847Z,77.97
2022-08-05T00:29:25.658Z,78.77
2022-08-05T00:32:10.942Z,78.11
2022-08-05T00:34:43.361Z,78.90
2022-08-05T00:37:35.414Z,78.87
2022-08-05T00:40:17.763Z,78.53
2022-08-05T00:42:54.399Z,78.28
2022-08-05T00:45:28.120Z,78.07
2022-08-05T00:48:05.291Z,77.85
2022-08-05T00:50:32.587Z,78.01
2022-08-05T00:52:59.590Z,78.61
2022-08-05T00:55:42.624Z,78.88
2022-08-05T00:58:13.610Z,79.25
2022-08-05T01:00:40.418Z,79.64
2022-08-05T01:03:08.894Z,78.42
2022-08-05T01:05:35.857Z,78.19
2022-08-05T01:08:40.148Z,78.30
2022-08-05T01:10:59.745Z,79.66
2022-08-05T01:14:27.818Z,79.77
2022-08-05T01:17:10.980Z,80.77
2022-08-05T01:20:00.770Z,79.60
2022-08-05T01:22:35.747Z,80.01
2022-08-05T01:25:40.356Z,80.45
2022-08-05T01:28:11.282Z,80.34
2022-08-05T01:30:53.858Z,79.83
2022-08-05T01:33:25.200Z,79.70
2022-08-05T01:35:53.527Z,79.81
2022-08-05T01:38:27.101Z,79.79
2022-08-05T01:40:58.144Z,80.60
2022-08-05T01:43:24.833Z,80.80
2022-08-05T01:45:56.192Z,80.62
2022-08-05T01:48:25.105Z,80.97
2022-08-05T01:50:51.823Z,81.63
2022-08-05T01:53:37.350Z,81.57
2022-08-05T01:56:05.380Z,82.25
2022-08-05T01:58:40.812Z,81.40
2022-08-05T02:01:12.633Z,81.23
2022-08-05T02:03:42.408Z,81.65
2022-08-05T02:06:33.844Z,82.08
2022-08-05T02:08:58.838Z,81.75
2022-08-05T02:11:33.210Z,81.64
2022-08-05T02:14:03.133Z,81.38
2022-08-05T02:16:34.865Z,82.20
2022-08-05T02:19:27.663Z,81.17
2022-08-05T02:21:59.046Z,81.72
2022-08-05T02:24:28.214Z,81.96
2022-08-05T02:26:56.917Z,82.25
2022-08-05T02:29:59.135Z,82.19
2022-08-05T02:32:11.635Z,83.00
2022-08-05T02:34:46.432Z,82.94
2022-08-05T02:37:22.041Z,82.35
2022-08-05T02:39:51.735Z,82.73
2022-08-05T02:42:25.996Z,82.69
2022-08-05T02:44:54.165Z,82.44
2022-08-05T02:47:21.425Z,82.96
2022-08-05T02:49:48.147Z,83.02
2022-08-05T02:52:25.985Z,83.03
2022-08-05T02:55:01.991Z,83.30
2022-08-05T02:58:09.415Z,83.75
2022-08-05T03:00:18.746Z,83.08
2022-08-05T03:02:45.420Z,83.26
2022-08-05T03:05:12.237Z,83.01
2022-08-05T03:08:01.007Z,83.65
2022-08-05T03:10:26.091Z,83.43
2022-08-05T03:12:53.021Z,83.35
2022-08-05T03:15:20.222Z,83.85
2022-08-05T03:17:46.947Z,84.02
2022-08-05T03:20:13.902Z,84.63
2022-08-05T03:22:44.070Z,84.66
2022-08-05T03:25:32.612Z,84.42
2022-08-05T03:28:01.506Z,84.01
2022-08-05T03:30:33.698Z,84.44
2022-08-05T03:33:01.855Z,84.26
2022-08-05T03:35:28.854Z,84.25
2022-08-05T03:37:59.300Z,83.83
2022-08-05T03:40:31.952Z,83.66
2022-08-05T03:42:59.530Z,83.58
2022-08-05T03:45:57.188Z,83.92
2022-08-05T03:48:29.107Z,83.47
2022-08-05T03:52:38.875Z,83.72
2022-08-05T03:55:51.843Z,84.06
2022-08-05T03:56:58.975Z,84.59
2022-08-05T03:59:46.960Z,85.23
2022-08-05T04:02:38.271Z,84.48
2022-08-05T04:05:04.707Z,84.34
2022-08-05T04:07:36.829Z,84.56
2022-08-05T04:10:23.526Z,84.71
2022-08-05T04:12:54.292Z,84.71
2022-08-05T04:15:24.539Z,84.16
2022-08-05T04:17:57.198Z,84.36
2022-08-05T04:20:24.280Z,83.94
2022-08-05T04:22:50.935Z,84.45
2022-08-05T04:25:17.778Z,84.27
2022-08-05T04:27:57.613Z,84.26
2022-08-05T04:30:26.622Z,84.25
2022-08-05T04:32:53.407Z,84.34
2022-08-05T04:35:20.170Z,84.04
2022-08-05T04:38:01.091Z,84.75
2022-08-05T04:40:32.817Z,85.44
2022-08-05T04:42:59.535Z,84.93
2022-08-05T04:45:48.351Z,85.19
2022-08-05T04:48:18.592Z,85.61
2022-08-05T04:51:03.674Z,85.24
2022-08-05T04:53:38.888Z,84.81
2022-08-05T04:56:15.441Z,85.73
2022-08-05T04:58:55.807Z,84.33
2022-08-05T05:02:05.470Z,83.19
2022-08-05T05:04:09.758Z,83.68
2022-08-05T05:06:42.284Z,83.53
2022-08-05T05:09:14.129Z,84.01
2022-08-05T05:11:55.596Z,84.81
2022-08-05T05:14:28.128Z,84.94
2022-08-05T05:16:59.438Z,84.78
2022-08-05T05:19:26.629Z,84.51
2022-08-05T05:22:22.967Z,84.69
2022-08-05T05:24:57.470Z,84.74
2022-08-05T05:27:45.221Z,85.49
2022-08-05T05:30:28.713Z,85.52
2022-08-05T05:32:57.068Z,85.05
2022-08-05T05:35:29.051Z,85.21
2022-08-05T05:38:02.455Z,85.25
2022-08-05T05:40:29.894Z,85.61
2022-08-05T05:42:57.099Z,84.29
2022-08-05T05:45:24.559Z,84.32
2022-08-05T05:48:06.762Z,83.71
2022-08-05T05:50:35.661Z,84.31
2022-08-05T05:53:22.518Z,83.56
2022-08-05T05:55:51.980Z,84.36
2022-08-05T05:58:31.926Z,82.64
2022-08-05T06:01:02.199Z,81.44
2022-08-05T06:04:02.121Z,81.43
2022-08-05T06:06:34.708Z,82.12
2022-08-05T06:09:03.227Z,82.55
2022-08-05T06:11:31.823Z,80.39
2022-08-05T06:14:00.391Z,80.63
2022-08-05T06:16:32.878Z,76.40
2022-08-05T06:19:05.653Z,74.68
2022-08-05T06:21:36.949Z,73.92
2022-08-05T06:24:12.193Z,72.86
2022-08-05T06:26:51.464Z,71.96
2022-08-05T06:29:25.146Z,71.57
2022-08-05T06:32:24.792Z,75.47
2022-08-05T06:34:53.485Z,75.77
2022-08-05T06:37:55.603Z,75.91
2022-08-05T06:40:10.511Z,77.79
2022-08-05T06:42:39.867Z,75.10
2022-08-05T06:45:08.838Z,72.19
2022-08-05T06:48:37.044Z,70.61
2022-08-05T06:50:23.716Z,73.58
2022-08-05T06:53:03.465Z,72.28
2022-08-05T06:55:37.480Z,72.92
2022-08-05T06:58:19.925Z,72.59
2022-08-05T07:00:59.842Z,71.26
2022-08-05T07:03:34.766Z,67.71
2022-08-05T07:09:40.478Z,65.26
2022-08-05T07:12:17.490Z,63.88
2022-08-05T07:14:54.081Z,63.81
2022-08-05T07:18:29.176Z,67.33
2022-08-05T07:22:00.585Z,63.89
2022-08-05T07:43:33.301Z,52.92
2022-08-05T07:46:01.653Z,45.97
2022-08-05T07:49:00.650Z,51.19
2022-08-05T07:51:23.355Z,45.23
2022-08-05T07:54:02.833Z,50.36
2022-08-05T07:56:59.911Z,45.70
2022-08-05T07:59:17.268Z,45.38
2022-08-05T08:01:57.644Z,48.50
2022-08-05T08:07:59.114Z,50.08
2022-08-05T08:10:27.434Z,52.56
2022-08-05T08:12:54.024Z,52.44
2022-08-05T08:15:37.219Z,49.35
2022-08-05T08:18:14.315Z,50.68
2022-08-05T08:21:00.108Z,50.47
2022-08-05T08:24:01.279Z,48.90
2022-08-05T08:26:14.955Z,50.48
2022-08-05T08:28:59.628Z,50.63
2022-08-05T08:31:28.280Z,50.99
2022-08-05T08:33:59.652Z,50.00
2022-08-05T08:36:38.778Z,49.49
2022-08-05T08:39:15.351Z,48.33
2022-08-05T08:42:34.445Z,47.78
2022-08-05T08:45:23.263Z,47.81
2022-08-05T08:48:06.146Z,46.00
2022-08-05T08:51:03.700Z,45.69
2022-08-05T08:53:45.234Z,41.18
2022-08-05T08:56:12.524Z,43.16
2022-08-05T08:58:48.009Z,44.83
2022-08-05T09:01:57.492Z,45.30
2022-08-05T09:05:38.913Z,41.52
2022-08-05T09:08:03.418Z,39.20
2022-08-05T09:10:32.219Z,40.99
2022-08-05T09:13:04.523Z,38.89
2022-08-05T09:15:32.130Z,40.55
2022-08-05T09:18:06.851Z,39.68
2022-08-05T09:20:37.658Z,38.81
2022-08-05T09:23:09.894Z,38.97
2022-08-05T09:26:03.068Z,38.54
2022-08-05T09:28:32.092Z,37.75
2022-08-05T09:31:18.178Z,36.52
2022-08-05T09:34:03.367Z,37.59
2022-08-05T09:36:56.205Z,36.32
2022-08-05T09:39:52.252Z,36.07
2022-08-05T09:42:24.142Z,35.77
2022-08-05T09:47:49.103Z,36.80
2022-08-05T09:50:37.594Z,36.04
2022-08-05T09:53:15.754Z,35.45
2022-08-05T09:56:03.699Z,35.06
2022-08-05T09:58:32.212Z,34.05
2022-08-05T10:01:13.586Z,35.44
2022-08-05T10:04:02.091Z,34.57
2022-08-05T10:06:31.145Z,35.27
2022-08-05T10:09:25.150Z,35.66
2022-08-05T10:11:55.277Z,35.16
2022-08-05T10:14:32.241Z,35.24
2022-08-05T10:17:19.952Z,35.08
2022-08-05T10:20:03.778Z,33.73
2022-08-05T10:22:37.962Z,34.56
2022-08-05T10:25:09.992Z,34.74
2022-08-05T10:28:12.791Z,34.27
2022-08-05T10:32:48.395Z,33.22
2022-08-05T10:33:14.903Z,32.82
2022-08-05T10:35:44.081Z,33.06
2022-08-05T10:38:11.827Z,33.11
2022-08-05T10:40:51.456Z,34.77
2022-08-05T10:43:47.503Z,35.35
2022-08-05T10:46:16.821Z,34.60
2022-08-05T10:48:58.107Z,34.79
2022-08-05T10:51:28.547Z,34.09
2022-08-05T10:54:01.085Z,35.44
2022-08-05T10:56:47.464Z,34.84
2022-08-05T11:00:04.323Z,34.29
2022-08-05T11:02:14.532Z,34.35
2022-08-05T11:05:00.228Z,34.61
2022-08-05T11:07:32.959Z,35.51
2022-08-05T11:10:22.432Z,34.10
2022-08-05T11:12:55.631Z,34.43
2022-08-05T11:15:23.457Z,34.42
2022-08-05T11:18:30.164Z,35.40
2022-08-05T11:20:59.231Z,34.11
2022-08-05T11:24:03.166Z,34.20
2022-08-05T11:26:28.904Z,33.64
2022-08-05T11:29:12.123Z,35.07
2022-08-05T11:31:57.148Z,34.72
2022-08-05T11:34:51.805Z,34.08
2022-08-05T11:38:30.027Z,34.38
2022-08-05T11:41:14.169Z,34.80
2022-08-05T11:44:02.809Z,35.33
2022-08-05T11:46:37.801Z,34.59
2022-08-05T11:49:24.772Z,33.13
2022-08-05T11:51:51.961Z,33.45
2022-08-05T11:54:33.457Z,33.30
2022-08-05T11:57:01.731Z,33.17
2022-08-05T11:59:49.782Z,32.65
2022-08-05T12:02:30.475Z,32.66
2022-08-05T12:05:00.064Z,34.53
2022-08-05T12:08:02.699Z,33.99
2022-08-05T12:10:13.888Z,32.87
2022-08-05T12:12:55.387Z,34.65
2022-08-05T12:15:38.291Z,32.96
2022-08-05T12:18:11.001Z,35.27
2022-08-05T12:20:39.259Z,33.56
2022-08-05T12:23:10.233Z,34.17
2022-08-05T12:26:09.405Z,33.95
2022-08-05T12:28:39.177Z,33.81
2022-08-05T12:31:05.966Z,34.09
2022-08-05T12:33:37.194Z,32.88
2022-08-05T12:36:07.908Z,33.67
2022-08-05T12:38:39.652Z,33.75
2022-08-05T12:41:13.345Z,34.16
2022-08-05T12:43:55.353Z,34.35
2022-08-05T12:46:33.035Z,33.45
2022-08-05T12:49:19.964Z,36.15
2022-08-05T12:52:13.860Z,34.24
2022-08-05T12:54:46.526Z,34.52
2022-08-05T12:57:16.435Z,33.98
2022-08-05T13:01:58.670Z,33.81
2022-08-05T13:02:35.977Z,34.10
2022-08-05T13:05:05.907Z,33.95
2022-08-05T13:07:57.572Z,35.08
2022-08-05T13:10:19.414Z,33.56
2022-08-05T13:12:57.175Z,34.08
2022-08-05T13:15:41.294Z,34.18
2022-08-05T13:18:19.857Z,34.29
2022-08-05T13:20:47.605Z,34.30
2022-08-05T13:23:18.016Z,35.34
2022-08-05T13:25:52.837Z,36.39
2022-08-05T13:28:27.194Z,36.44
2022-08-05T13:30:53.933Z,36.20
2022-08-05T13:34:21.274Z,35.43
2022-08-05T13:36:10.692Z,35.28
2022-08-05T13:38:41.904Z,34.51
2022-08-05T13:41:10.548Z,35.57
2022-08-05T13:43:45.034Z,34.86
2022-08-05T13:46:50.544Z,36.94
2022-08-05T13:49:12.040Z,35.73
2022-08-05T13:51:41.078Z,35.66
2022-08-05T13:54:13.238Z,33.79
2022-08-05T13:56:45.217Z,33.30
2022-08-05T13:59:24.098Z,34.84
2022-08-05T14:01:57.633Z,34.24
2022-08-05T14:04:29.173Z,36.05
2022-08-05T14:06:58.744Z,34.44
2022-08-05T14:09:45.947Z,32.95
2022-08-05T14:12:18.042Z,34.23
2022-08-05T14:14:59.122Z,34.82
2022-08-05T14:17:25.832Z,33.62
2022-08-05T14:19:59.665Z,32.89
2022-08-05T14:22:30.536Z,33.57
2022-08-05T14:25:06.111Z,35.70
2022-08-05T14:27:47.357Z,33.58
2022-08-05T14:30:20.478Z,36.75
2022-08-05T14:32:48.081Z,35.18
2022-08-05T14:35:14.772Z,36.12
2022-08-05T14:37:48.184Z,35.90
2022-08-05T14:40:17.094Z,35.54
2022-08-05T14:42:44.003Z,36.04
2022-08-05T14:45:10.757Z,36.80
2022-08-05T14:48:04.175Z,36.00
2022-08-05T14:50:25.436Z,35.65
2022-08-05T14:52:56.968Z,35.76
2022-08-05T14:55:26.246Z,35.72
2022-08-05T14:58:10.897Z,36.64
2022-08-05T15:00:38.733Z,36.70
2022-08-05T15:03:05.569Z,37.48
2022-08-05T15:06:07.656Z,37.34
2022-08-05T15:08:57.972Z,37.66
2022-08-05T15:11:09.609Z,36.86
2022-08-05T15:13:45.945Z,36.89
2022-08-05T15:16:16.235Z,36.98
2022-08-05T15:18:43.774Z,36.73
2022-08-05T15:21:14.008Z,36.70
2022-08-05T15:23:40.835Z,36.24
2022-08-05T15:26:07.543Z,35.05
2022-08-05T15:28:35.420Z,36.58
2022-08-05T15:31:09.846Z,35.79
2022-08-05T15:34:18.536Z,35.68
2022-08-05T15:36:24.446Z,34.60
2022-08-05T15:41:00.149Z,36.03
2022-08-05T15:41:58.502Z,34.53
2022-08-05T15:44:27.403Z,36.42
2022-08-05T15:46:55.585Z,36.35
2022-08-05T15:49:40.859Z,34.68
2022-08-05T15:52:16.157Z,34.94
2022-08-05T15:54:55.685Z,33.89
2022-08-05T15:57:23.487Z,34.25
2022-08-05T15:59:54.016Z,35.11
2022-08-05T16:02:27.714Z,34.71
2022-08-05T16:04:55.459Z,34.99
2022-08-05T16:07:22.929Z,36.96
2022-08-05T16:09:49.774Z,35.24
2022-08-05T16:12:16.717Z,35.18
2022-08-05T16:14:46.527Z,34.84
2022-08-05T16:17:13.358Z,35.53
2022-08-05T16:20:04.987Z,36.86
2022-08-05T16:22:27.856Z,35.83
2022-08-05T16:25:07.963Z,36.50
2022-08-05T16:27:59.721Z,36.22
2022-08-05T16:30:26.728Z,36.72
2022-08-05T16:32:55.718Z,37.50
2022-08-05T16:35:28.531Z,36.35
2022-08-05T16:38:02.468Z,38.13
2022-08-05T16:40:51.798Z,37.62
2022-08-05T16:43:23.739Z,37.25
2022-08-05T16:46:04.278Z,37.46
2022-08-05T16:48:39.599Z,38.98
2022-08-05T16:51:09.669Z,39.10
2022-08-05T16:54:05.422Z,39.90
2022-08-05T16:56:27.847Z,39.27
2022-08-05T16:58:54.921Z,40.95
2022-08-05T17:01:21.999Z,41.97
2022-08-05T17:03:50.953Z,41.44
2022-08-05T17:06:17.880Z,41.58
2022-08-05T17:08:52.702Z,41.87
2022-08-05T17:11:25.527Z,43.44
2022-08-05T17:14:00.279Z,44.51
2022-08-05T17:16:36.400Z,45.35
2022-08-05T17:19:07.582Z,45.13
2022-08-05T17:21:37.177Z,46.09
2022-08-05T17:24:19.830Z,47.21
2022-08-05T17:26:52.318Z,45.12
2022-08-05T17:29:22.345Z,44.93
2022-08-05T17:31:58.665Z,44.93
2022-08-05T17:34:29.927Z,46.77
2022-08-05T17:37:00.073Z,49.50
2022-08-05T17:39:33.574Z,51.47
2022-08-05T17:42:18.621Z,54.17
2022-08-05T17:44:51.230Z,49.61
2022-08-05T17:47:22.423Z,47.82
2022-08-05T17:50:03.494Z,49.48
2022-08-05T17:52:53.037Z,51.21
2022-08-05T17:55:34.088Z,52.86
2022-08-05T17:58:01.468Z,56.34
2022-08-05T18:00:29.279Z,52.47
2022-08-05T18:02:56.454Z,50.49
2022-08-05T18:05:23.801Z,52.88
2022-08-05T18:07:54.908Z,54.51
2022-08-05T18:10:23.617Z,54.42
2022-08-05T18:12:50.374Z,52.30
2022-08-05T18:15:17.318Z,53.84
2022-08-05T18:17:59.194Z,56.28
2022-08-05T18:20:31.565Z,57.30
2022-08-05T18:23:00.654Z,57.08
2022-08-05T18:25:35.872Z,57.62
2022-08-05T18:28:05.101Z,57.49
2022-08-05T18:30:32.351Z,58.97
2022-08-05T18:33:00.388Z,59.62
2022-08-05T18:36:00.773Z,60.19
2022-08-05T18:38:19.449Z,60.14
2022-08-05T18:41:56.736Z,59.31
2022-08-05T18:43:42.845Z,61.51
2022-08-05T18:46:20.001Z,62.00
2022-08-05T18:48:52.162Z,60.85
2022-08-05T18:52:04.745Z,62.24
2022-08-05T18:54:09.541Z,59.09
2022-08-05T18:56:36.203Z,61.18
2022-08-05T18:59:17.006Z,60.54
2022-08-05T19:01:57.269Z,60.16
2022-08-05T19:04:25.512Z,59.86
2022-08-05T19:06:53.612Z,61.09
2022-08-05T19:09:21.169Z,61.41
2022-08-05T19:12:00.100Z,61.69
2022-08-05T19:14:44.932Z,61.66
2022-08-05T19:17:16.540Z,61.35
2022-08-05T19:19:44.174Z,61.66
2022-08-05T19:22:17.301Z,62.83
2022-08-05T19:24:54.325Z,62.78
2022-08-05T19:27:30.276Z,61.43
2022-08-05T19:29:57.366Z,62.72
2022-08-05T19:32:26.118Z,63.35
2022-08-05T19:34:55.670Z,61.51
2022-08-05T19:37:35.182Z,61.90
2022-08-05T19:40:10.943Z,61.59
2022-08-05T19:42:37.757Z,61.43
2022-08-05T19:45:06.941Z,63.01
2022-08-05T19:47:34.960Z,60.44
2022-08-05T19:50:04.864Z,60.03
2022-08-05T19:52:34.245Z,59.05
2022-08-05T19:55:07.169Z,58.90
2022-08-05T19:58:07.023Z,57.48
2022-08-05T20:00:36.248Z,57.85
2022-08-05T20:03:08.486Z,55.66
2022-08-05T20:05:42.968Z,52.43
2022-08-05T20:08:10.228Z,51.81
2022-08-05T20:10:36.835Z,50.84
2022-08-05T20:13:03.616Z,50.53
2022-08-05T20:15:50.864Z,49.10
2022-08-05T20:18:32.749Z,48.47
2022-08-05T20:21:00.853Z,48.84
2022-08-05T20:23:39.182Z,48.91
2022-08-05T20:26:16.223Z,48.47
2022-08-05T20:28:45.165Z,48.63
2022-08-05T20:31:11.866Z,47.99
2022-08-05T20:33:38.495Z,47.73
2022-08-05T20:36:10.055Z,46.67
2022-08-05T20:38:36.994Z,47.25
2022-08-05T20:41:05.265Z,48.16
2022-08-05T20:43:58.712Z,49.24
2022-08-05T20:46:24.925Z,51.16
2022-08-05T20:48:51.860Z,52.01
2022-08-05T20:51:19.066Z,54.57
2022-08-05T20:53:56.442Z,59.57
2022-08-05T20:56:29.886Z,61.03
2022-08-05T20:58:59.934Z,59.51
2022-08-05T21:01:38.835Z,60.87
2022-08-05T21:04:05.734Z,61.98
2022-08-05T21:06:33.255Z,64.30
2022-08-05T21:09:00.330Z,63.12
2022-08-05T21:12:07.354Z,68.93
2022-08-05T21:14:13.608Z,66.52
2022-08-05T21:16:41.079Z,69.51
2022-08-05T21:19:07.676Z,70.71
2022-08-05T21:21:43.871Z,73.65
2022-08-05T21:24:16.994Z,76.14
2022-08-05T21:26:58.447Z,76.02
2022-08-05T21:29:26.627Z,77.21
2022-08-05T21:31:58.102Z,76.84
2022-08-05T21:34:24.732Z,75.50
2022-08-05T21:36:51.754Z,75.86
2022-08-05T21:39:26.603Z,76.82
2022-08-05T21:42:01.954Z,76.43
2022-08-05T21:44:30.047Z,76.31
2022-08-05T21:46:58.049Z,77.59
2022-08-05T21:49:58.722Z,79.68
2022-08-05T21:52:21.395Z,80.01
2022-08-05T21:54:51.177Z,81.36
2022-08-05T21:57:31.674Z,81.63
2022-08-05T22:00:11.136Z,82.16
2022-08-05T22:02:38.281Z,82.43
2022-08-05T22:05:05.475Z,82.23
2022-08-05T22:07:39.399Z,83.70
2022-08-05T22:10:26.573Z,84.66
2022-08-05T22:12:57.253Z,85.33
2022-08-05T22:16:02.653Z,86.51
2022-08-05T22:18:11.136Z,85.87
2022-08-05T22:20:39.042Z,84.83
2022-08-05T22:23:17.009Z,85.79
2022-08-05T22:26:09.996Z,85.58
2022-08-05T22:28:33.710Z,85.15
2022-08-05T22:31:05.274Z,85.46
2022-08-05T22:33:56.890Z,85.93
2022-08-05T22:36:19.088Z,85.94
2022-08-05T22:38:50.471Z,86.52
2022-08-05T22:41:26.291Z,85.86
2022-08-05T22:44:05.114Z,87.29
2022-08-05T22:46:31.930Z,87.64
2022-08-05T22:48:59.302Z,88.51
2022-08-05T22:52:02.573Z,88.50
2022-08-05T22:54:13.062Z,89.32
2022-08-05T22:56:40.711Z,88.76
2022-08-05T22:59:45.304Z,88.35
2022-08-05T23:02:04.369Z,87.87
2022-08-05T23:04:32.924Z,88.60
2022-08-05T23:06:59.540Z,88.96
2022-08-05T23:09:27.652Z,88.51
2022-08-05T23:12:12.924Z,89.67
2022-08-05T23:14:39.540Z,88.91
2022-08-05T23:17:10.415Z,88.36
2022-08-05T23:19:46.625Z,88.34
2022-08-05T23:22:19.270Z,89.61
2022-08-05T23:24:53.780Z,88.75
2022-08-05T23:27:20.792Z,89.40
2022-08-05T23:29:50.657Z,88.78
2022-08-05T23:32:17.549Z,88.53
2022-08-05T23:34:49.888Z,88.49
2022-08-05T23:37:17.824Z,89.17
2022-08-05T23:39:53.660Z,90.49
2022-08-05T23:42:23.483Z,90.59
2022-08-05T23:44:56.256Z,90.43
2022-08-05T23:47:25.145Z,88.50
2022-08-05T23:49:52.189Z,89.29
2022-08-05T23:52:25.267Z,89.29
2022-08-05T23:54:53.372Z,89.26
2022-08-05T23:57:20.054Z,89.42
